Time;durP1;ratioP1;P1;durP2;ratioP2;P2;SDS_P1;SDS_P2;PMS_P1;PMS_P2;Temp;Humidity;BMP_temperature;BMP_pressure;BME280_temperature;BME280_humidity;BME280_pressure;Samples;Min_cycle;Max_cycle;Signal;HPM_P1;HPM_P2
2022/05/27 00:02:03;;;;;;;5.10;2.20;;;15.00;99.90;;;15.94;100.00;98645.16;4996737;28;20502;-77
2022/05/27 00:04:34;;;;;;;4.30;2.00;;;14.90;99.90;;;15.91;100.00;98643.75;4998069;28;20469;-77
2022/05/27 00:07:04;;;;;;;3.87;1.83;;;14.90;99.90;;;15.89;100.00;98643.16;4997757;28;20483;-77
2022/05/27 00:09:34;;;;;;;1.70;1.40;;;14.90;99.90;;;15.87;100.00;98642.53;4997072;28;20491;-77
2022/05/27 00:12:06;;;;;;;4.73;1.87;;;14.90;99.90;;;15.80;100.00;98652.28;4998668;28;20833;-77
2022/05/27 00:14:37;;;;;;;4.00;2.10;;;14.80;99.90;;;15.77;100.00;98651.88;4997305;28;20957;-77
2022/05/27 00:17:07;;;;;;;2.80;1.67;;;14.90;99.90;;;15.76;100.00;98647.63;4998981;28;20950;-77
2022/05/27 00:19:37;;;;;;;3.50;2.10;;;14.80;99.90;;;15.72;100.00;98641.97;5001405;28;20517;-77
2022/05/27 00:22:08;;;;;;;6.20;2.70;;;14.80;99.90;;;15.68;100.00;98632.03;4994172;28;20470;-77
2022/05/27 00:24:38;;;;;;;5.77;2.20;;;14.80;99.90;;;15.66;100.00;98632.22;4997592;28;20467;-77
2022/05/27 00:27:09;;;;;;;7.03;2.70;;;14.70;99.90;;;15.60;100.00;98631.22;4996619;28;20475;-77
2022/05/27 00:29:39;;;;;;;4.40;2.67;;;14.80;99.90;;;15.59;100.00;98632.22;5001351;28;20492;-77
2022/05/27 00:32:29;;;;;;;3.87;2.30;;;14.70;99.90;;;15.60;100.00;98633.84;4997066;28;20472;-77
2022/05/27 00:34:59;;;;;;;4.47;2.70;;;14.60;99.90;;;15.60;100.00;98633.84;4998773;28;20462;-77
2022/05/27 00:37:29;;;;;;;4.53;2.80;;;14.70;99.90;;;15.59;100.00;98624.31;5002678;28;20496;-76
2022/05/27 00:39:59;;;;;;;5.50;3.03;;;14.60;99.90;;;15.57;100.00;98626.34;5001365;28;20487;-77
2022/05/27 00:42:30;;;;;;;8.23;2.93;;;14.60;99.90;;;15.57;100.00;98626.34;4998834;28;20472;-77
2022/05/27 00:45:01;;;;;;;6.10;3.33;;;14.60;99.90;;;15.58;100.00;98621.91;4999633;28;20536;-76
2022/05/27 00:47:36;;;;;;;3.53;2.73;;;14.60;99.90;;;15.56;100.00;98632.63;5002550;28;20466;-77
2022/05/27 00:50:12;;;;;;;5.47;3.40;;;14.60;99.90;;;15.56;100.00;98632.63;4999793;28;20503;-77
2022/05/27 00:52:46;;;;;;;5.07;2.83;;;14.70;99.90;;;15.56;100.00;98622.09;5001172;28;20903;-77
2022/05/27 00:55:21;;;;;;;10.17;3.00;;;14.70;99.90;;;15.59;100.00;98618.22;5005913;28;20465;-77
2022/05/27 00:57:58;;;;;;;7.37;2.97;;;14.70;99.90;;;15.59;100.00;98621.66;5000204;28;20466;-76
2022/05/27 01:00:28;;;;;;;4.53;3.20;;;14.70;99.90;;;15.55;100.00;98619.63;5001402;28;20474;-77
2022/05/27 01:03:00;;;;;;;6.83;3.03;;;14.70;99.90;;;15.54;100.00;98621.50;5002792;28;20457;-77
2022/05/27 01:05:30;;;;;;;5.60;3.60;;;14.70;99.90;;;15.56;100.00;98619.44;5002774;28;20463;-77
2022/05/27 01:08:07;;;;;;;6.80;3.70;;;14.70;99.90;;;15.58;100.00;98613.97;5000258;28;20474;-77
2022/05/27 01:10:52;;;;;;;9.03;3.70;;;14.80;99.90;;;15.59;100.00;98611.13;5000597;28;20458;-77
2022/05/27 01:13:42;;;;;;;4.93;3.23;;;14.80;99.90;;;15.63;100.00;98597.53;5000966;28;21335;-76
2022/05/27 01:16:28;;;;;;;5.70;2.83;;;14.80;99.90;;;15.57;100.00;98602.63;4997186;28;21017;-77
2022/05/27 01:22:42;;;;;;;5.73;3.03;;;14.90;99.90;;;15.57;100.00;98607.09;5002034;28;20452;-77
2022/05/27 01:25:58;;;;;;;7.47;2.83;;;14.80;99.90;;;15.63;100.00;98600.97;5001025;28;20442;-77
2022/05/27 01:28:45;;;;;;;4.37;2.60;;;14.80;99.90;;;15.65;100.00;98609.50;5002168;28;20487;-77
2022/05/27 01:31:34;;;;;;;3.07;2.70;;;14.80;99.90;;;15.65;100.00;98608.69;4998649;28;20526;-77
2022/05/27 01:34:19;;;;;;;9.57;3.00;;;14.90;99.90;;;15.62;100.00;98598.56;4998507;28;20471;-77
2022/05/27 01:37:02;;;;;;;7.97;3.10;;;14.90;99.90;;;15.64;100.00;98604.44;4999187;28;20471;-77
2022/05/27 01:39:45;;;;;;;3.67;2.43;;;14.90;99.90;;;15.67;100.00;98609.28;5000847;28;20996;-77
2022/05/27 01:42:25;;;;;;;6.10;2.87;;;14.90;99.90;;;15.69;100.00;98599.38;4999081;28;20467;-77
2022/05/27 01:45:03;;;;;;;4.83;2.80;;;14.90;99.90;;;15.73;100.00;98605.81;4998810;28;20497;-77
2022/05/27 01:47:40;;;;;;;8.10;2.90;;;14.90;99.90;;;15.69;100.00;98599.38;4997271;28;20459;-77
2022/05/27 01:50:17;;;;;;;6.30;3.17;;;15.00;99.90;;;15.68;100.00;98603.00;4999776;28;20488;-77
2022/05/27 01:52:59;;;;;;;5.23;3.20;;;14.90;99.90;;;15.67;100.00;98601.38;4997990;28;20820;-77
2022/05/27 01:55:40;;;;;;;7.17;2.97;;;14.90;99.90;;;15.67;100.00;98602.19;5000911;28;20518;-77
2022/05/27 01:58:18;;;;;;;5.33;3.47;;;15.00;99.90;;;15.68;100.00;98597.75;4998383;28;21246;-77
2022/05/27 02:00:50;;;;;;;5.20;3.00;;;15.00;99.90;;;15.68;100.00;98600.38;5002400;28;20463;-77
2022/05/27 02:03:28;;;;;;;7.90;3.00;;;14.90;99.90;;;15.72;100.00;98604.22;5000027;28;20459;-77
2022/05/27 02:06:05;;;;;;;4.40;2.70;;;15.00;99.90;;;15.76;100.00;98597.53;5000435;28;20446;-77
2022/05/27 02:08:41;;;;;;;3.80;3.00;;;15.00;99.90;;;15.80;100.00;98598.72;5000351;28;22935;-77
2022/05/27 02:11:16;;;;;;;3.50;2.70;;;15.10;99.90;;;15.84;100.00;98594.66;5002364;28;20451;-77
2022/05/27 02:13:54;;;;;;;6.90;3.27;;;15.10;99.90;;;15.85;100.00;98596.28;5000613;28;20470;-77
2022/05/27 02:16:31;;;;;;;3.60;2.90;;;15.10;99.90;;;15.86;100.00;98584.72;5000424;28;20455;-77
2022/05/27 02:19:11;;;;;;;4.67;3.30;;;15.10;99.90;;;15.84;100.00;98595.47;5003937;28;20563;-77
2022/05/27 02:21:47;;;;;;;6.33;2.87;;;15.20;99.90;;;15.87;100.00;98591.59;4997824;28;20463;-77
2022/05/27 02:24:24;;;;;;;4.00;2.57;;;15.20;99.90;;;15.88;100.00;98578.22;5002312;28;20518;-77
2022/05/27 02:27:03;;;;;;;5.20;3.10;;;15.10;99.90;;;15.90;100.00;98591.19;4996772;28;20822;-77
2022/05/27 02:29:34;;;;;;;4.33;2.90;;;15.10;99.90;;;15.88;100.00;98577.41;4999854;28;20924;-77
2022/05/27 02:32:11;;;;;;;3.40;2.60;;;15.20;99.90;;;15.90;100.00;98580.63;4997762;28;20471;-77
2022/05/27 02:35:07;;;;;;;6.50;2.90;;;15.20;99.90;;;15.91;100.00;98588.34;4999684;28;21277;-77
2022/05/27 02:37:42;;;;;;;4.13;2.60;;;15.10;99.90;;;15.93;100.00;98585.50;4996784;28;20843;-77
2022/05/27 02:40:18;;;;;;;5.80;2.57;;;15.20;99.90;;;15.95;100.00;98583.47;4997710;28;20467;-77
2022/05/27 02:43:09;;;;;;;3.30;2.20;;;15.20;99.90;;;15.97;100.00;98578.78;4998717;28;20470;-77
2022/05/27 02:45:50;;;;;;;4.30;2.27;;;15.30;99.90;;;15.95;100.00;98578.19;4998304;28;20493;-77
2022/05/27 02:48:33;;;;;;;3.60;2.30;;;15.30;99.90;;;15.94;100.00;98580.00;4999102;28;20557;-77
2022/05/27 02:51:20;;;;;;;2.50;2.30;;;15.20;99.90;;;15.93;100.00;98578.38;4998226;28;20459;-77
2022/05/27 02:54:01;;;;;;;7.30;2.90;;;15.20;99.90;;;15.87;100.00;98576.59;5000133;28;20513;-77
2022/05/27 02:56:38;;;;;;;4.53;2.50;;;15.20;99.90;;;15.91;100.00;98576.97;4998612;28;20467;-77
2022/05/27 02:59:11;;;;;;;4.33;2.57;;;15.20;99.90;;;15.90;100.00;98575.34;4999801;28;20504;-77
2022/05/27 03:01:40;;;;;;;3.80;2.70;;;15.10;99.90;;;15.92;100.00;98573.34;4999667;28;20518;-77
2022/05/27 03:04:11;;;;;;;3.30;2.37;;;15.20;99.90;;;15.96;100.00;98564.81;4999378;28;20478;-77
2022/05/27 03:06:56;;;;;;;4.07;2.57;;;15.20;99.90;;;15.99;100.00;98568.84;4997366;28;20475;-77
2022/05/27 03:09:43;;;;;;;3.30;2.50;;;15.30;99.90;;;15.99;100.00;98569.66;5000971;28;20589;-81
2022/05/27 03:12:47;;;;;;;12.60;6.10;;;15.30;99.90;;;15.96;100.00;98564.81;4998122;28;20448;-77
2022/05/27 03:15:34;;;;;;;5.23;2.70;;;15.20;99.90;;;16.02;100.00;98573.69;4997974;28;21578;-77
2022/05/27 03:18:23;;;;;;;5.23;2.27;;;15.20;99.90;;;16.02;100.00;98573.69;4997847;28;20459;-77
2022/05/27 03:21:11;;;;;;;13.20;3.20;;;15.30;99.90;;;15.98;100.00;98572.50;4997176;28;20463;-77
2022/05/27 03:24:21;;;;;;;15.17;7.10;;;15.30;99.90;;;15.97;100.00;98573.50;5000740;28;20451;-81
2022/05/27 03:27:26;;;;;;;4.67;2.20;;;15.20;99.90;;;16.02;100.00;98579.78;4996658;28;20489;-78
2022/05/27 03:30:05;;;;;;;6.73;2.67;;;15.20;99.90;;;16.06;100.00;98572.28;4999243;28;20518;-77
2022/05/27 03:32:55;;;;;;;6.00;2.47;;;15.20;99.90;;;16.07;100.00;98576.50;5000885;28;20953;-78
2022/05/27 03:35:36;;;;;;;3.63;2.10;;;15.20;99.90;;;16.09;100.00;98575.31;5000304;28;20443;-77
2022/05/27 03:38:14;;;;;;;3.17;2.27;;;15.20;99.90;;;16.12;100.00;98571.44;5000567;28;20509;-78
2022/05/27 03:40:53;;;;;;;3.07;2.17;;;15.30;99.90;;;16.11;100.00;98569.78;5000787;28;20447;-77
2022/05/27 03:43:24;;;;;;;3.20;2.43;;;15.20;99.90;;;16.02;100.00;98565.78;4998997;28;20447;-77
2022/05/27 03:45:59;;;;;;;3.50;2.47;;;15.30;99.90;;;16.04;100.00;98571.66;4998728;28;20463;-77
2022/05/27 03:48:33;;;;;;;5.30;2.50;;;15.30;99.90;;;16.02;100.00;98571.06;5000763;28;20504;-77
2022/05/27 03:51:20;;;;;;;4.00;2.23;;;15.30;99.90;;;16.06;100.00;98569.63;4998412;28;20486;-81
2022/05/27 03:54:06;;;;;;;3.67;1.93;;;15.30;99.90;;;16.06;100.00;98569.63;4999223;28;20545;-77
2022/05/27 03:56:40;;;;;;;2.53;2.13;;;15.40;99.90;;;15.96;100.00;98562.16;4996476;28;20455;-77
2022/05/27 03:59:13;;;;;;;5.43;2.63;;;15.30;99.90;;;15.97;100.00;98565.59;4997011;28;20459;-77
2022/05/27 04:01:47;;;;;;;7.03;4.10;;;15.30;99.90;;;15.97;100.00;98560.31;4995698;28;20474;-82
2022/05/27 04:04:20;;;;;;;5.73;3.50;;;15.30;99.90;;;15.91;100.00;98556.69;4995675;28;20860;-78
2022/05/27 04:06:50;;;;;;;3.43;2.73;;;15.20;99.90;;;15.90;100.00;98565.63;4996776;28;20483;-77
2022/05/27 04:09:21;;;;;;;2.93;2.30;;;15.20;99.90;;;15.84;100.00;98569.09;5000194;28;20471;-77
2022/05/27 04:11:53;;;;;;;6.10;2.50;;;15.10;99.90;;;15.80;100.00;98574.97;5003370;28;20454;-77
2022/05/27 04:14:23;;;;;;;5.80;2.30;;;15.00;99.90;;;15.85;100.00;98572.53;5002319;28;20550;-77
2022/05/27 04:17:27;;;;;;;5.30;2.67;;;15.00;99.90;;;15.88;100.00;98580.03;5003683;28;20497;-77
2022/05/27 04:19:45;;;;;;;5.40;3.03;;;15.10;99.90;;;15.84;100.00;98581.47;5002552;28;21023;-77
2022/05/27 04:22:15;;;;;;;6.40;2.20;;;15.20;99.90;;;15.87;100.00;98584.50;5001864;28;20544;-77
2022/05/27 04:24:46;;;;;;;3.73;1.87;;;15.10;99.90;;;15.88;100.00;98580.84;5005553;28;20440;-83
2022/05/27 04:27:20;;;;;;;4.90;3.33;;;15.20;99.90;;;15.89;100.00;98579.84;5004829;28;20950;-77
2022/05/27 04:29:52;;;;;;;5.33;2.97;;;15.10;99.90;;;15.94;100.00;98576.56;5004614;28;20482;-77
2022/05/27 04:32:22;;;;;;;5.17;3.30;;;15.10;99.90;;;15.96;100.00;98575.34;5004008;28;20977;-77
2022/05/27 04:34:52;;;;;;;3.80;2.40;;;15.10;99.90;;;15.96;100.00;98579.81;5003160;28;21275;-76
2022/05/27 04:37:24;;;;;;;3.20;1.70;;;15.20;99.90;;;15.93;100.00;98572.31;5003282;28;20505;-76
2022/05/27 04:39:53;;;;;;;2.70;1.90;;;15.10;99.90;;;15.97;100.00;98574.31;5003177;28;20455;-77
2022/05/27 04:42:25;;;;;;;2.67;1.80;;;15.20;99.90;;;15.97;100.00;98566.41;5005040;28;20494;-77
2022/05/27 04:44:55;;;;;;;4.30;1.80;;;15.20;99.90;;;15.98;100.00;98572.50;5004483;28;20470;-77
2022/05/27 04:47:27;;;;;;;3.80;1.70;;;15.20;99.90;;;15.97;100.00;98574.31;5003543;28;21315;-76
2022/05/27 04:49:58;;;;;;;5.73;1.70;;;15.20;99.90;;;15.93;100.00;98580.25;5004829;28;20448;-77
2022/05/27 04:52:30;;;;;;;3.17;2.13;;;15.10;99.90;;;15.90;100.00;98581.44;5002114;28;20850;-77
2022/05/27 04:55:03;;;;;;;6.70;2.23;;;15.20;99.90;;;15.88;100.00;98582.69;5001201;28;20460;-77
2022/05/27 04:57:38;;;;;;;2.90;1.80;;;15.20;99.90;;;15.90;100.00;98578.81;5000660;28;20456;-77
2022/05/27 05:00:15;;;;;;;3.83;1.70;;;15.10;99.90;;;15.92;100.00;98581.25;4999063;28;20813;-77
2022/05/27 05:02:45;;;;;;;2.00;1.67;;;15.10;99.90;;;15.90;100.00;98581.44;5000021;28;20509;-77
2022/05/27 05:05:16;;;;;;;3.80;1.70;;;15.10;99.90;;;15.93;100.00;98583.66;5000368;28;20499;-77
2022/05/27 05:07:50;;;;;;;1.80;1.33;;;15.20;99.90;;;15.94;100.00;98584.47;4999384;28;20440;-77
2022/05/27 05:10:23;;;;;;;2.63;1.40;;;15.20;99.90;;;15.95;100.00;98588.75;5003914;28;20479;-77
2022/05/27 05:12:55;;;;;;;1.93;1.30;;;15.20;99.90;;;15.96;100.00;98593.00;5005395;28;20457;-77
2022/05/27 05:15:45;;;;;;;1.67;1.30;;;15.20;99.90;;;15.95;100.00;98592.19;5004370;28;20456;-77
2022/05/27 05:18:17;;;;;;;1.43;1.27;;;15.20;99.90;;;15.97;100.00;98586.69;5003891;28;20459;-77
2022/05/27 05:20:47;;;;;;;1.93;1.20;;;15.30;99.90;;;15.99;100.00;98595.22;5005009;28;20528;-77
2022/05/27 05:23:16;;;;;;;3.53;1.47;;;15.30;99.90;;;15.97;100.00;98584.88;5005642;28;20447;-77
2022/05/27 05:25:45;;;;;;;4.40;1.40;;;15.20;99.90;;;15.97;100.00;98591.97;5005115;28;20452;-77
2022/05/27 05:28:16;;;;;;;1.80;1.30;;;15.30;99.90;;;15.93;100.00;98588.16;5005318;28;20609;-77
2022/05/27 05:30:46;;;;;;;1.40;1.30;;;15.20;99.90;;;15.92;100.00;98589.97;5007014;28;20475;-77
2022/05/27 05:33:16;;;;;;;2.90;1.40;;;15.10;99.90;;;15.92;100.00;98583.88;5004413;28;20826;-77
2022/05/27 05:35:47;;;;;;;1.63;1.07;;;15.20;99.90;;;15.98;100.00;98577.78;5003825;28;20571;-77
2022/05/27 05:38:17;;;;;;;3.40;1.30;;;15.30;99.90;;;15.95;100.00;98583.47;5004861;28;20492;-77
2022/05/27 05:40:48;;;;;;;3.23;1.40;;;15.20;99.90;;;15.96;100.00;98583.28;5005518;28;20835;-77
2022/05/27 05:43:19;;;;;;;2.43;1.33;;;15.30;99.90;;;15.98;100.00;98593.59;5005887;28;20501;-77
2022/05/27 05:45:49;;;;;;;4.10;1.53;;;15.30;99.90;;;15.94;100.00;98587.09;5005236;28;20444;-77
2022/05/27 05:48:21;;;;;;;1.90;1.27;;;15.20;99.90;;;15.97;100.00;98591.97;5004078;28;20435;-77
2022/05/27 05:50:51;;;;;;;2.80;1.63;;;15.20;99.90;;;16.01;100.00;98596.63;5004664;28;20489;-77
2022/05/27 05:53:21;;;;;;;1.70;1.20;;;15.30;99.90;;;16.05;100.00;98586.47;5004389;28;20443;-77
2022/05/27 05:55:51;;;;;;;3.17;1.40;;;15.30;99.90;;;15.99;100.00;98584.69;5005107;28;20455;-77
2022/05/27 05:58:22;;;;;;;5.83;1.60;;;15.30;99.90;;;15.96;100.00;98590.38;5004341;28;20448;-77
2022/05/27 06:00:53;;;;;;;4.30;1.50;;;15.30;99.90;;;15.94;100.00;98595.03;5004679;28;20443;-77
2022/05/27 06:03:24;;;;;;;1.80;1.40;;;15.20;99.90;;;15.95;100.00;98588.75;5004891;28;20514;-77
2022/05/27 06:05:55;;;;;;;1.80;1.20;;;15.20;99.90;;;15.99;100.00;98589.94;5003936;28;20443;-77
2022/05/27 06:08:26;;;;;;;3.73;1.30;;;15.30;99.90;;;15.93;100.00;98596.06;5001933;28;20454;-77
2022/05/27 06:10:57;;;;;;;1.57;1.00;;;15.10;99.90;;;15.97;100.00;98595.41;5001556;28;20479;-77
2022/05/27 06:13:29;;;;;;;4.67;1.50;;;15.20;99.90;;;15.92;100.00;98597.88;5002069;28;20440;-77
2022/05/27 06:15:59;;;;;;;1.97;1.30;;;15.10;99.90;;;15.97;100.00;98602.53;5000683;28;20448;-77
2022/05/27 06:18:28;;;;;;;5.97;1.50;;;15.20;99.90;;;15.95;100.00;98608.03;5001925;28;20443;-77
2022/05/27 06:20:58;;;;;;;1.57;1.20;;;15.30;99.90;;;16.00;100.00;98599.50;5001791;28;21407;-77
2022/05/27 06:23:29;;;;;;;3.70;1.43;;;15.40;99.90;;;15.98;100.00;98598.88;5000996;28;20472;-77
2022/05/27 06:26:01;;;;;;;6.33;1.27;;;15.30;99.90;;;16.03;100.00;98599.06;4999780;28;20464;-77
2022/05/27 06:36:56;;;;;;;6.50;1.50;;;15.50;99.90;;;16.10;100.00;98597.22;4997824;28;20446;-77
2022/05/27 06:39:28;;;;;;;3.53;1.50;;;15.40;99.90;;;16.15;100.00;98599.22;4999393;28;20463;-77
2022/05/27 06:42:04;;;;;;;4.47;1.60;;;15.40;99.90;;;16.08;100.00;98604.53;4997445;28;20462;-77
2022/05/27 06:44:55;;;;;;;6.03;1.57;;;15.40;99.90;;;16.01;100.00;98601.91;4998023;28;20874;-77
2022/05/27 06:47:25;;;;;;;2.37;1.47;;;15.20;99.90;;;16.01;100.00;98603.72;4998001;28;20440;-77
2022/05/27 06:49:56;;;;;;;2.03;1.30;;;15.30;99.90;;;16.01;100.00;98598.44;4997615;28;20956;-76
2022/05/27 06:52:27;;;;;;;2.63;1.37;;;15.30;99.90;;;15.96;100.00;98598.28;4997428;28;20562;-76
2022/05/27 06:54:57;;;;;;;4.03;1.30;;;15.20;99.90;;;16.03;100.00;98601.72;4997361;28;20436;-77
2022/05/27 06:57:29;;;;;;;1.53;1.30;;;15.30;99.90;;;16.14;100.00;98611.59;4997972;28;20448;-76
2022/05/27 07:00:00;;;;;;;2.60;1.20;;;15.50;99.90;;;16.14;100.00;98608.19;4996689;28;20517;-77
2022/05/27 07:02:31;;;;;;;1.97;1.17;;;15.30;99.90;;;16.17;100.00;98607.75;4998141;28;20568;-77
2022/05/27 07:05:01;;;;;;;2.20;1.37;;;15.30;99.90;;;16.27;100.00;98605.47;4997964;28;20440;-76
2022/05/27 07:07:32;;;;;;;3.17;1.40;;;15.50;99.90;;;16.30;100.00;98608.50;4997659;28;20491;-77
2022/05/27 07:10:01;;;;;;;2.63;1.50;;;15.60;99.90;;;16.28;100.00;98607.09;4997822;28;20505;-77
2022/05/27 07:12:31;;;;;;;3.00;1.57;;;15.60;99.90;;;16.30;100.00;98603.22;4997336;28;20618;-77
2022/05/27 07:15:05;;;;;;;2.00;1.33;;;15.70;99.90;;;16.31;100.00;98610.13;4998846;28;20452;-77
2022/05/27 07:17:35;;;;;;;2.80;1.13;;;15.60;99.90;;;16.31;100.00;98615.41;4997389;28;20455;-77
2022/05/27 07:20:06;;;;;;;1.40;1.20;;;15.80;99.90;;;16.33;100.00;98616.00;4998021;28;20824;-77
2022/05/27 07:22:35;;;;;;;2.13;1.60;;;15.80;99.90;;;16.34;100.00;98620.28;4997869;28;20501;-78
2022/05/27 07:25:09;;;;;;;8.90;1.40;;;15.80;99.90;;;16.36;100.00;98622.69;4996956;28;20454;-77
2022/05/27 07:27:39;;;;;;;5.77;1.27;;;15.80;99.90;;;16.40;100.00;98622.06;4997178;28;20488;-77
2022/05/27 07:30:14;;;;;;;3.10;1.70;;;15.80;99.90;;;16.51;100.00;98629.34;4997767;28;20455;-77
2022/05/27 07:32:45;;;;;;;4.60;1.67;;;15.90;99.90;;;16.51;100.00;98633.81;4998239;28;20494;-77
2022/05/27 07:35:16;;;;;;;1.30;1.10;;;15.70;99.90;;;16.57;100.00;98631.16;4996233;28;20538;-77
2022/05/27 07:37:45;;;;;;;1.53;1.00;;;15.70;99.90;;;16.56;100.00;98624.25;4997770;28;20448;-77
2022/05/27 07:40:15;;;;;;;2.80;1.43;;;15.80;99.90;;;16.47;100.00;98625.50;4995574;28;20479;-77
2022/05/27 07:42:46;;;;;;;1.77;1.20;;;15.70;99.90;;;16.46;100.00;98628.31;4998912;28;20440;-77
2022/05/27 07:45:26;;;;;;;2.23;1.37;;;15.60;99.90;;;16.46;100.00;98634.44;4998470;28;20439;-77
2022/05/27 07:47:55;;;;;;;2.20;1.20;;;15.70;99.90;;;16.45;100.00;98627.50;4998767;28;20506;-77
2022/05/27 07:50:27;;;;;;;3.40;1.40;;;15.60;99.90;;;16.46;100.00;98629.16;4998777;28;20451;-77
2022/05/27 07:52:58;;;;;;;4.17;1.47;;;15.70;99.90;;;16.44;100.00;98630.38;4999797;28;20558;-77
2022/05/27 07:55:27;;;;;;;1.60;1.20;;;15.70;99.90;;;16.47;100.00;98632.59;5000787;28;20462;-77
2022/05/27 07:57:57;;;;;;;1.90;1.20;;;15.70;99.90;;;16.54;100.00;98628.91;5003359;28;20444;-77
2022/05/27 08:00:33;;;;;;;5.00;1.70;;;15.90;99.90;;;16.58;100.00;98630.16;5002463;28;20531;-77
2022/05/27 08:03:03;;;;;;;1.30;1.10;;;15.90;99.90;;;16.63;100.00;98633.97;5001819;28;20529;-77
2022/05/27 08:05:35;;;;;;;2.50;1.00;;;16.00;99.90;;;16.50;100.00;98635.63;5002813;28;20925;-77
2022/05/27 08:08:05;;;;;;;1.93;1.27;;;15.90;99.90;;;16.47;100.00;98633.41;5002019;28;20541;-77
2022/05/27 08:10:40;;;;;;;3.60;1.37;;;15.90;99.90;;;16.49;100.00;98635.81;5000529;28;20482;-77
2022/05/27 08:13:11;;;;;;;3.40;1.50;;;15.90;99.90;;;16.55;100.00;98627.09;5003173;28;20487;-77
2022/05/27 08:15:44;;;;;;;3.33;1.30;;;15.90;99.90;;;16.57;100.00;98635.63;5001660;28;20943;-77
2022/05/27 08:18:14;;;;;;;2.77;1.50;;;16.00;99.90;;;16.56;100.00;98634.00;5003191;28;20435;-77
2022/05/27 08:20:44;;;;;;;1.60;1.10;;;15.80;99.90;;;16.62;100.00;98640.28;5002001;28;20443;-77
2022/05/27 08:23:14;;;;;;;1.40;1.20;;;16.00;99.90;;;16.60;100.00;98646.56;5002412;28;20451;-77
2022/05/27 08:25:44;;;;;;;3.30;1.23;;;15.90;99.90;;;16.58;100.00;98646.00;5003706;28;20458;-77
2022/05/27 08:28:15;;;;;;;2.47;1.53;;;15.90;99.90;;;16.62;100.00;98640.28;5003716;28;20545;-77
2022/05/27 08:30:46;;;;;;;1.63;1.30;;;15.90;99.90;;;16.60;100.00;98641.28;5003055;28;20771;-77
2022/05/27 08:33:16;;;;;;;2.70;1.03;;;16.00;99.90;;;16.57;100.00;98633.81;5000808;28;20489;-78
2022/05/27 08:38:35;;;;;;;1.20;1.00;;;15.90;99.90;;;16.68;100.00;98642.06;5001363;28;20502;-77
2022/05/27 08:41:31;;;;;;;2.23;1.10;;;15.90;99.90;;;16.70;100.00;98642.66;5001184;28;20488;-77
2022/05/27 08:44:21;;;;;;;5.13;1.20;;;15.90;99.90;;;16.77;100.00;98640.78;5000539;28;20833;-77
2022/05/27 08:47:05;;;;;;;2.27;1.10;;;16.10;99.90;;;16.78;100.00;98637.97;5001429;28;20942;-77
2022/05/27 08:49:39;;;;;;;1.53;0.90;;;16.10;99.90;;;16.73;100.00;98640.41;5000450;28;20443;-77
2022/05/27 08:52:21;;;;;;;3.80;1.10;;;16.10;99.90;;;16.75;100.00;98633.09;5000720;28;20574;-77
2022/05/27 08:54:58;;;;;;;2.93;1.00;;;16.00;99.90;;;16.79;100.00;98636.94;4998815;28;20439;-77
2022/05/27 09:00:26;;;;;;;2.33;1.17;;;16.10;99.90;;;16.67;100.00;98656.28;4998622;28;20927;-77
2022/05/27 09:03:04;;;;;;;3.47;1.47;;;15.90;99.90;;;16.66;100.00;98644.13;5000343;28;20531;-77
2022/05/27 09:05:44;;;;;;;5.60;1.10;;;16.00;99.90;;;16.67;100.00;98651.81;5000501;28;20976;-77
2022/05/27 09:08:22;;;;;;;1.57;1.10;;;15.90;99.90;;;16.63;100.00;98650.63;5001727;28;20925;-77
2022/05/27 09:11:07;;;;;;;1.20;0.90;;;16.00;99.90;;;16.67;100.00;98654.47;5000665;28;20439;-77
2022/05/27 09:13:45;;;;;;;1.63;1.10;;;16.00;99.90;;;16.64;100.00;98651.44;5001999;28;20486;-77
2022/05/27 09:16:27;;;;;;;1.80;1.20;;;16.00;99.90;;;16.64;100.00;98651.44;5002902;28;20447;-78
2022/05/27 09:19:10;;;;;;;2.20;1.40;;;16.00;99.90;;;16.67;100.00;98657.09;5001367;28;20471;-77
2022/05/27 09:21:53;;;;;;;3.00;1.27;;;15.90;99.90;;;16.75;100.00;98658.69;5001059;28;20828;-77
2022/05/27 09:24:43;;;;;;;2.60;1.10;;;16.00;99.90;;;16.78;100.00;98658.28;5001216;28;20946;-77
2022/05/27 09:27:18;;;;;;;1.30;1.20;;;16.10;99.90;;;16.82;100.00;98670.03;4999603;28;20510;-77
2022/05/27 09:30:02;;;;;;;3.17;1.20;;;16.10;99.90;;;16.73;100.00;98660.75;5001643;28;20941;-77
2022/05/27 09:32:38;;;;;;;1.43;1.10;;;16.10;99.90;;;16.76;100.00;98662.97;5000597;28;20619;-77
2022/05/27 09:35:16;;;;;;;3.50;1.10;;;16.10;99.90;;;16.77;100.00;98667.22;5001404;28;20554;-77
2022/05/27 09:38:08;;;;;;;1.20;1.03;;;16.10;99.90;;;16.83;100.00;98667.22;5000157;28;20818;-77
2022/05/27 09:40:46;;;;;;;4.50;1.20;;;16.10;99.90;;;16.84;100.00;98668.00;5003218;28;20464;-77
2022/05/27 09:43:26;;;;;;;2.57;1.20;;;16.20;99.90;;;16.84;100.00;98660.06;5005355;28;20436;-77
2022/05/27 09:46:00;;;;;;;1.40;1.00;;;16.20;99.90;;;16.73;100.00;98663.41;5005814;28;20446;-77
2022/05/27 09:48:30;;;;;;;1.53;1.10;;;16.00;99.90;;;16.65;100.00;98664.44;5004238;28;20560;-77
2022/05/27 09:51:08;;;;;;;1.27;1.00;;;16.10;99.90;;;16.60;100.00;98666.88;5004022;28;20542;-77
2022/05/27 09:53:44;;;;;;;2.37;1.33;;;16.00;99.90;;;16.60;100.00;98670.34;5004967;28;20485;-77
2022/05/27 09:56:32;;;;;;;1.63;0.93;;;16.00;99.90;;;16.66;100.00;98667.91;5003866;28;20436;-77
2022/05/27 09:59:21;;;;;;;1.00;0.90;;;16.10;99.90;;;16.67;100.00;98672.13;5005473;28;21099;-77
2022/05/27 10:01:51;;;;;;;4.03;1.17;;;16.00;99.90;;;16.64;100.00;98672.56;5004935;28;20509;-77
2022/05/27 10:04:22;;;;;;;2.03;1.00;;;15.80;99.90;;;16.68;100.00;98673.78;5004935;28;21028;-78
2022/05/27 10:07:06;;;;;;;1.50;1.30;;;16.00;99.90;;;16.70;100.00;98672.53;5005121;28;20443;-77
2022/05/27 10:09:38;;;;;;;1.80;1.20;;;16.00;99.90;;;16.64;100.00;98667.28;5005420;28;20471;-77
2022/05/27 10:12:10;;;;;;;2.83;1.10;;;15.90;99.90;;;16.69;100.00;98672.75;5004161;28;20451;-77
2022/05/27 10:14:51;;;;;;;2.70;1.30;;;16.00;99.90;;;16.71;100.00;98670.69;5004446;28;20487;-77
2022/05/27 10:17:35;;;;;;;2.50;1.30;;;16.10;99.90;;;16.62;100.00;98661.41;5001926;28;20510;-77
2022/05/27 10:20:21;;;;;;;1.27;1.00;;;15.90;99.90;;;16.58;100.00;98672.41;5005190;28;20573;-77
2022/05/27 10:23:07;;;;;;;2.80;1.13;;;16.00;99.90;;;16.67;100.00;98672.13;5004138;28;20731;-77
2022/05/27 10:25:41;;;;;;;1.60;0.90;;;16.00;99.90;;;16.71;100.00;98668.06;5004741;28;20877;-77
2022/05/27 10:28:24;;;;;;;2.03;1.20;;;16.10;99.90;;;16.74;100.00;98667.63;5004286;28;20485;-77
2022/05/27 10:30:58;;;;;;;2.13;1.10;;;16.10;99.90;;;16.72;100.00;98669.69;5002472;28;20440;-77
2022/05/27 10:33:41;;;;;;;1.30;1.03;;;16.10;99.90;;;16.76;100.00;98662.97;5003818;28;20511;-77
2022/05/27 10:36:58;;;;;;;3.57;1.17;;;16.20;99.90;;;16.84;100.00;98668.81;5003720;28;20945;-77
2022/05/27 10:39:37;;;;;;;2.13;1.07;;;16.20;99.90;;;16.84;100.00;98662.72;5001696;28;20463;-77
2022/05/27 10:42:32;;;;;;;1.70;1.00;;;16.20;99.90;;;16.92;100.00;98649.25;4997640;28;20450;-77
2022/05/27 10:45:19;;;;;;;1.50;1.00;;;16.30;99.90;;;16.84;100.00;98662.72;4998176;28;20594;-77
2022/05/27 10:48:40;;;;;;;1.60;1.03;;;16.20;99.90;;;16.86;100.00;98655.41;4998914;28;20525;-77
2022/05/27 10:51:29;;;;;;;2.20;1.30;;;16.20;99.90;;;16.80;100.00;98658.88;4999842;28;20482;-77
2022/05/27 10:54:22;;;;;;;1.67;1.20;;;16.10;99.90;;;16.79;100.00;98665.19;5000388;28;20943;-77
2022/05/27 11:03:57;;;;;;;3.83;1.07;;;16.20;99.90;;;16.90;100.00;98657.38;4999700;28;20447;-77
2022/05/27 11:07:05;;;;;;;1.60;1.10;;;16.30;99.90;;;16.96;100.00;98663.66;5002758;28;21160;-77
2022/05/27 11:09:57;;;;;;;1.83;1.27;;;16.30;99.90;;;16.96;100.00;98648.63;5000948;28;21060;-77
2022/05/27 11:15:48;;;;;;;1.40;1.03;;;16.30;99.90;;;17.01;100.00;98655.91;5003063;28;20456;-77
2022/05/27 11:18:43;;;;;;;1.50;1.13;;;16.30;99.90;;;17.07;100.00;98649.78;5002872;28;20439;-77
2022/05/27 11:21:44;;;;;;;1.13;0.90;;;16.40;99.90;;;17.05;100.00;98652.63;5001995;28;20526;-77